Time;durP1;ratioP1;P1;durP2;ratioP2;P2;SDS_P1;SDS_P2;PMS_P1;PMS_P2;Temp;Humidity;BMP_temperature;BMP_pressure;BME280_temperature;BME280_humidity;BME280_pressure;Samples;Min_cycle;Max_cycle;Signal;HPM_P1;HPM_P2
2022/05/05 00:01:45;;;;;;;20.13;5.95;;;8.00;99.90;;;;;;5028112;28;20038;-75
2022/05/05 00:04:11;;;;;;;15.25;6.32;;;8.00;99.90;;;;;;5026469;28;20025;-76
2022/05/05 00:06:37;;;;;;;15.93;5.70;;;7.90;99.90;;;;;;5008287;28;20387;-76
2022/05/05 00:09:04;;;;;;;14.43;6.00;;;7.90;99.90;;;;;;5025705;28;20092;-76
2022/05/05 00:14:24;;;;;;;11.63;5.70;;;7.90;99.90;;;;;;5028755;28;20020;-76
2022/05/05 00:16:57;;;;;;;12.80;5.88;;;7.90;99.90;;;;;;5012214;28;20056;-74
2022/05/05 00:19:24;;;;;;;19.92;7.55;;;7.90;99.90;;;;;;5026965;28;20041;-75
2022/05/05 00:21:49;;;;;;;9.07;5.68;;;7.90;99.90;;;;;;5006998;28;20038;-75
2022/05/05 00:24:16;;;;;;;11.10;5.57;;;7.90;99.90;;;;;;5031450;28;20024;-74
2022/05/05 00:26:42;;;;;;;9.90;5.57;;;7.80;99.90;;;;;;5013163;28;20022;-75
2022/05/05 00:29:08;;;;;;;13.35;5.07;;;7.80;99.90;;;;;;5026230;28;20030;-76
2022/05/05 00:31:34;;;;;;;8.98;5.45;;;7.80;99.90;;;;;;5006608;28;20545;-75
2022/05/05 00:33:59;;;;;;;13.13;5.25;;;7.80;99.90;;;;;;5022556;28;20101;-75
2022/05/05 00:36:25;;;;;;;11.52;6.47;;;7.80;99.90;;;;;;5028358;28;20068;-75
2022/05/05 00:38:50;;;;;;;11.57;5.35;;;7.70;99.90;;;;;;5024258;28;20091;-74
2022/05/05 00:41:16;;;;;;;7.53;5.18;;;7.70;99.90;;;;;;5026172;28;20026;-74
2022/05/05 00:43:41;;;;;;;10.30;4.90;;;7.70;99.90;;;;;;5025456;28;20115;-74
2022/05/05 00:46:07;;;;;;;12.27;5.22;;;7.70;99.90;;;;;;5034145;28;20029;-75
2022/05/05 00:48:33;;;;;;;17.45;5.57;;;7.70;99.90;;;;;;5035626;28;20029;-74
2022/05/05 00:50:59;;;;;;;10.25;5.63;;;7.70;99.90;;;;;;5036271;28;20065;-74
2022/05/05 00:53:24;;;;;;;9.45;5.68;;;7.60;99.90;;;;;;5018465;28;20117;-74
2022/05/05 00:55:55;;;;;;;10.57;5.75;;;7.70;99.90;;;;;;5037434;28;20431;-74
2022/05/05 00:58:23;;;;;;;12.52;5.97;;;7.70;99.90;;;;;;5037417;28;20025;-74
2022/05/05 01:00:48;;;;;;;10.68;6.18;;;7.80;99.90;;;;;;5036909;28;20033;-74
2022/05/05 01:03:15;;;;;;;12.18;6.03;;;7.80;99.90;;;;;;5019278;28;20061;-75
2022/05/05 01:05:41;;;;;;;9.02;6.18;;;7.90;99.90;;;;;;5019265;28;20029;-74
2022/05/05 01:08:07;;;;;;;11.90;6.13;;;7.80;99.90;;;;;;5039131;28;20032;-74
2022/05/05 01:10:32;;;;;;;10.73;5.80;;;7.70;99.90;;;;;;5048469;28;20040;-73
2022/05/05 01:13:01;;;;;;;16.33;6.32;;;7.70;99.90;;;;;;5045160;28;20025;-73
2022/05/05 01:15:28;;;;;;;8.20;6.10;;;7.70;99.90;;;;;;5039378;28;20021;-74
2022/05/05 01:17:54;;;;;;;11.88;5.95;;;7.70;99.90;;;;;;5037515;28;20067;-74
2022/05/05 01:20:22;;;;;;;11.88;6.35;;;7.60;99.90;;;;;;5018918;28;20026;-74
2022/05/05 01:22:49;;;;;;;12.13;7.38;;;7.60;99.90;;;;;;5017944;28;20097;-74
2022/05/05 01:28:14;;;;;;;12.85;6.57;;;7.60;99.90;;;;;;5036971;28;20101;-74
2022/05/05 01:30:45;;;;;;;13.63;6.40;;;7.50;99.90;;;;;;5036551;28;20025;-74
2022/05/05 01:33:22;;;;;;;13.48;7.15;;;7.60;99.90;;;;;;5036964;28;20024;-74
2022/05/05 01:35:50;;;;;;;14.75;6.53;;;7.60;99.90;;;;;;5038309;28;20033;-73
2022/05/05 01:38:20;;;;;;;11.95;6.60;;;7.60;99.90;;;;;;5020158;28;20128;-73
2022/05/05 01:40:47;;;;;;;14.00;6.35;;;7.60;99.90;;;;;;5037087;28;20029;-73
2022/05/05 01:43:17;;;;;;;20.88;7.18;;;7.60;99.90;;;;;;5038236;28;20033;-74
2022/05/05 01:45:43;;;;;;;13.27;6.88;;;7.60;99.90;;;;;;5021678;28;20025;-74
2022/05/05 01:48:09;;;;;;;11.60;7.32;;;7.60;99.90;;;;;;5020138;28;20030;-73
2022/05/05 01:50:35;;;;;;;16.52;8.13;;;7.60;99.90;;;;;;5038582;28;20025;-74
2022/05/05 01:53:01;;;;;;;14.00;7.80;;;7.60;99.90;;;;;;5039013;28;20021;-74
2022/05/05 01:55:28;;;;;;;15.45;7.43;;;7.50;99.90;;;;;;5038908;28;20422;-74
2022/05/05 01:57:54;;;;;;;14.25;7.20;;;7.50;99.90;;;;;;5041657;28;20081;-74
2022/05/05 02:00:20;;;;;;;16.17;8.45;;;7.50;99.90;;;;;;5021853;28;20072;-75
2022/05/05 02:02:46;;;;;;;11.50;7.40;;;7.50;99.90;;;;;;5043964;28;20029;-74
2022/05/05 02:05:12;;;;;;;11.50;7.63;;;7.50;99.90;;;;;;5055664;28;20098;-74
2022/05/05 02:07:39;;;;;;;14.30;7.80;;;7.40;99.90;;;;;;5055453;28;20041;-74
2022/05/05 02:10:06;;;;;;;14.05;7.47;;;7.40;99.90;;;;;;5037481;28;20025;-74
2022/05/05 02:12:33;;;;;;;10.68;8.30;;;7.50;99.90;;;;;;5055236;28;20504;-74
2022/05/05 02:14:58;;;;;;;15.93;9.05;;;7.40;99.90;;;;;;5037922;28;20482;-74
2022/05/05 02:17:24;;;;;;;16.13;8.38;;;7.40;99.90;;;;;;5055129;28;20028;-74
2022/05/05 02:19:50;;;;;;;12.85;8.60;;;7.40;99.90;;;;;;5037956;28;20025;-74
2022/05/05 02:22:16;;;;;;;14.75;8.45;;;7.40;99.90;;;;;;5038322;28;20393;-73
2022/05/05 02:24:42;;;;;;;15.45;8.40;;;7.40;99.90;;;;;;5060031;28;20081;-74
2022/05/05 02:27:10;;;;;;;12.43;8.43;;;7.30;99.90;;;;;;5056961;28;20033;-74
2022/05/05 02:29:36;;;;;;;13.18;8.18;;;7.30;99.90;;;;;;5055467;28;20032;-75
2022/05/05 02:32:01;;;;;;;13.70;7.85;;;7.30;99.90;;;;;;5056168;28;20385;-74
2022/05/05 02:34:27;;;;;;;17.73;7.88;;;7.30;99.90;;;;;;5056483;28;20425;-74
2022/05/05 02:39:37;;;;;;;14.23;7.72;;;7.30;99.90;;;;;;5058366;28;20036;-74
2022/05/05 02:42:03;;;;;;;13.98;8.50;;;7.30;99.90;;;;;;5039868;28;20017;-74
2022/05/05 02:44:28;;;;;;;19.02;7.90;;;7.20;99.90;;;;;;5040279;28;20025;-74
2022/05/05 02:46:54;;;;;;;13.40;8.30;;;7.20;99.90;;;;;;5058117;28;20021;-74
2022/05/05 02:49:20;;;;;;;17.88;8.32;;;7.20;99.90;;;;;;5058973;28;20155;-74
2022/05/05 02:51:45;;;;;;;12.77;7.68;;;7.20;99.90;;;;;;5058651;28;20025;-74
2022/05/05 02:56:55;;;;;;;11.80;8.40;;;7.30;99.90;;;;;;5060177;28;20032;-75
2022/05/05 02:59:21;;;;;;;16.20;7.63;;;7.20;99.90;;;;;;5059097;28;20100;-74
2022/05/05 03:01:47;;;;;;;17.30;8.73;;;7.20;99.90;;;;;;5057881;28;20025;-75
2022/05/05 03:04:12;;;;;;;12.65;8.27;;;7.20;99.90;;;;;;5040304;28;20053;-74
2022/05/05 03:06:38;;;;;;;12.27;7.20;;;7.20;99.90;;;;;;5057919;28;20560;-76
2022/05/05 03:09:03;;;;;;;13.75;8.30;;;7.20;99.90;;;;;;5057910;28;20123;-74
2022/05/05 03:11:29;;;;;;;10.75;6.93;;;7.20;99.90;;;;;;5057921;28;20036;-75
2022/05/05 03:13:55;;;;;;;14.43;7.00;;;7.20;99.90;;;;;;5058469;28;20025;-74
2022/05/05 03:16:20;;;;;;;10.27;7.00;;;7.20;99.90;;;;;;5040131;28;20120;-75
2022/05/05 03:18:46;;;;;;;11.38;6.80;;;7.20;99.90;;;;;;5058448;28;20084;-75
2022/05/05 03:21:11;;;;;;;12.55;7.25;;;7.10;99.90;;;;;;5058519;28;20033;-75
2022/05/05 03:23:37;;;;;;;11.95;6.88;;;7.10;99.90;;;;;;5040610;28;20052;-74
2022/05/05 03:26:03;;;;;;;11.88;7.47;;;7.00;99.90;;;;;;5059040;28;20033;-74
2022/05/05 03:28:28;;;;;;;12.73;7.30;;;7.00;99.90;;;;;;5059040;28;20037;-75
2022/05/05 03:30:54;;;;;;;13.65;7.28;;;7.10;99.90;;;;;;5058656;28;20549;-74
2022/05/05 03:33:19;;;;;;;12.90;7.65;;;7.00;99.90;;;;;;5041241;28;20115;-74
2022/05/05 03:35:45;;;;;;;20.30;8.27;;;7.00;99.90;;;;;;5040746;28;20021;-75
2022/05/05 03:38:10;;;;;;;15.13;7.97;;;7.00;99.90;;;;;;5044750;28;20025;-74
2022/05/05 03:40:36;;;;;;;17.63;8.98;;;6.90;99.90;;;;;;5060334;28;20391;-74
2022/05/05 03:43:02;;;;;;;15.50;8.60;;;6.90;99.90;;;;;;5058597;28;20096;-74
2022/05/05 03:45:27;;;;;;;17.83;9.02;;;6.90;99.90;;;;;;5059077;28;20467;-74
2022/05/05 03:47:53;;;;;;;10.15;7.75;;;6.90;99.90;;;;;;5039407;28;20017;-75
2022/05/05 03:50:19;;;;;;;16.00;9.02;;;6.90;99.90;;;;;;5041315;28;20029;-74
2022/05/05 03:52:44;;;;;;;16.08;8.82;;;6.90;99.90;;;;;;5035421;28;20037;-74
2022/05/05 03:55:10;;;;;;;13.65;9.00;;;6.90;99.90;;;;;;5058748;28;20080;-75
2022/05/05 03:57:35;;;;;;;13.32;8.25;;;6.80;99.90;;;;;;5034257;28;20026;-74
2022/05/05 04:00:01;;;;;;;17.45;8.48;;;6.90;99.90;;;;;;5039529;28;20110;-73
2022/05/05 04:02:26;;;;;;;12.27;7.80;;;6.80;99.90;;;;;;5037308;28;20056;-73
2022/05/05 04:04:52;;;;;;;12.73;8.63;;;6.70;99.90;;;;;;5019596;28;20120;-73
2022/05/05 04:07:18;;;;;;;10.60;8.25;;;6.80;99.90;;;;;;5037645;28;20025;-73
2022/05/05 04:09:43;;;;;;;15.52;8.93;;;6.70;99.90;;;;;;5019453;28;20026;-73
2022/05/05 04:12:09;;;;;;;13.90;8.35;;;6.80;99.90;;;;;;5038017;28;20040;-73
2022/05/05 04:14:35;;;;;;;16.63;9.32;;;6.80;99.90;;;;;;5019274;28;20025;-73
2022/05/05 04:17:01;;;;;;;18.63;8.68;;;6.80;99.90;;;;;;5020009;28;20475;-73
2022/05/05 04:19:27;;;;;;;12.00;9.25;;;6.80;99.90;;;;;;5037015;28;20021;-74
2022/05/05 04:21:53;;;;;;;10.02;7.72;;;6.90;99.90;;;;;;5036590;28;20064;-73
2022/05/05 04:24:19;;;;;;;15.55;8.80;;;6.90;99.90;;;;;;5036579;28;20030;-73
2022/05/05 04:26:46;;;;;;;12.18;8.27;;;7.00;99.90;;;;;;5036103;28;20055;-74
2022/05/05 04:29:12;;;;;;;12.35;8.30;;;7.00;99.90;;;;;;5036936;28;20474;-74
2022/05/05 04:31:39;;;;;;;17.60;8.75;;;7.00;99.90;;;;;;5036382;28;20037;-73
2022/05/05 04:34:06;;;;;;;10.98;8.38;;;7.00;99.90;;;;;;5018526;28;20064;-74
2022/05/05 04:36:34;;;;;;;15.98;9.00;;;7.00;99.90;;;;;;5036552;28;20025;-74
2022/05/05 04:39:04;;;;;;;15.40;9.40;;;7.00;99.90;;;;;;5036323;28;20049;-74
2022/05/05 04:41:30;;;;;;;14.27;8.13;;;7.00;99.90;;;;;;5037806;28;20398;-74
2022/05/05 04:43:55;;;;;;;12.93;7.25;;;7.10;99.90;;;;;;5037461;28;20023;-74
2022/05/05 04:46:21;;;;;;;14.77;7.85;;;7.10;99.90;;;;;;5037763;28;20479;-74
2022/05/05 04:48:48;;;;;;;13.82;7.80;;;7.10;99.90;;;;;;5037360;28;20026;-74
2022/05/05 04:51:14;;;;;;;13.95;8.50;;;7.20;99.90;;;;;;5038496;28;20053;-72
2022/05/05 04:53:40;;;;;;;11.63;7.68;;;7.10;99.90;;;;;;5025769;28;20021;-73
2022/05/05 04:56:06;;;;;;;17.17;8.63;;;7.10;99.90;;;;;;5037138;28;20028;-74
2022/05/05 04:58:33;;;;;;;13.50;8.82;;;7.20;99.90;;;;;;5036663;28;20022;-74
2022/05/05 05:00:59;;;;;;;12.27;8.07;;;7.20;99.90;;;;;;5019285;28;20065;-74
2022/05/05 05:03:35;;;;;;;16.73;7.88;;;7.30;99.90;;;;;;5036708;28;20048;-75
2022/05/05 05:06:01;;;;;;;18.60;8.45;;;7.30;99.90;;;;;;5036672;28;20013;-74
2022/05/05 05:08:27;;;;;;;11.77;8.35;;;7.30;99.90;;;;;;5006969;28;20025;-74
2022/05/05 05:10:53;;;;;;;18.05;8.55;;;7.30;99.90;;;;;;5016702;28;20040;-74
2022/05/05 05:13:18;;;;;;;20.30;8.55;;;7.30;99.90;;;;;;5017135;28;20018;-74
2022/05/05 05:15:44;;;;;;;15.25;9.18;;;7.30;99.90;;;;;;5018840;28;20022;-74
2022/05/05 05:18:09;;;;;;;12.90;8.20;;;7.40;99.90;;;;;;5018040;28;20424;-74
2022/05/05 05:20:35;;;;;;;14.30;8.85;;;7.40;99.90;;;;;;4998907;28;20014;-72
2022/05/05 05:23:00;;;;;;;13.48;9.02;;;7.50;99.90;;;;;;5016111;28;20068;-72
2022/05/05 05:25:26;;;;;;;15.15;9.10;;;7.50;99.90;;;;;;5016481;28;20022;-72
2022/05/05 05:27:51;;;;;;;11.73;8.15;;;7.60;99.90;;;;;;4997939;28;20451;-72
2022/05/05 05:30:17;;;;;;;14.88;8.07;;;7.70;99.90;;;;;;4998410;28;20045;-72
2022/05/05 05:32:43;;;;;;;11.77;7.95;;;7.70;99.90;;;;;;4998543;28;20499;-72
2022/05/05 05:35:08;;;;;;;18.58;8.60;;;7.80;99.90;;;;;;4998484;28;20372;-72
2022/05/05 05:37:34;;;;;;;14.23;8.05;;;7.90;99.90;;;;;;5017191;28;20482;-72
2022/05/05 05:39:59;;;;;;;18.27;9.43;;;8.00;99.90;;;;;;5023585;28;20114;-73
2022/05/05 05:42:25;;;;;;;13.20;8.02;;;8.10;99.90;;;;;;5038464;28;20033;-73
2022/05/05 05:44:50;;;;;;;14.40;8.88;;;8.20;99.90;;;;;;5019511;28;20021;-72
2022/05/05 05:47:16;;;;;;;13.45;8.57;;;8.30;99.90;;;;;;5018747;28;20029;-72
2022/05/05 05:49:41;;;;;;;16.00;8.27;;;8.30;99.90;;;;;;5019561;28;20100;-72
2022/05/05 05:52:07;;;;;;;10.80;7.88;;;8.40;99.90;;;;;;5038066;28;20036;-71
2022/05/05 05:54:33;;;;;;;14.45;8.73;;;8.50;99.90;;;;;;5039187;28;20061;-71
2022/05/05 05:56:58;;;;;;;13.85;8.40;;;8.50;99.90;;;;;;5021419;28;20104;-71
2022/05/05 05:59:24;;;;;;;11.25;7.22;;;8.60;99.90;;;;;;5022012;28;20352;-71
2022/05/05 06:04:33;;;;;;;8.20;5.90;;;8.80;99.90;;;;;;5036095;28;20036;-71
2022/05/05 06:06:59;;;;;;;6.88;5.40;;;8.90;99.90;;;;;;5037590;28;20402;-72
2022/05/05 06:09:25;;;;;;;13.30;5.28;;;9.10;99.90;;;;;;5035705;28;20029;-72
2022/05/05 06:11:50;;;;;;;10.48;4.97;;;9.10;99.90;;;;;;5019716;28;20048;-72
2022/05/05 06:14:16;;;;;;;5.95;4.35;;;9.20;99.90;;;;;;5038374;28;20547;-72
2022/05/05 06:16:41;;;;;;;7.13;4.72;;;9.30;99.90;;;;;;5038146;28;20022;-72
2022/05/05 06:19:07;;;;;;;7.13;4.88;;;9.40;99.90;;;;;;5039465;28;20427;-71
2022/05/05 06:21:32;;;;;;;10.07;5.07;;;9.50;99.90;;;;;;5038808;28;20048;-72
2022/05/05 06:23:58;;;;;;;15.32;5.28;;;9.70;99.90;;;;;;5039247;28;20029;-71
2022/05/05 06:26:23;;;;;;;12.02;4.90;;;9.80;99.90;;;;;;5021799;28;20486;-72
2022/05/05 06:28:50;;;;;;;10.05;4.68;;;9.90;99.90;;;;;;5040199;28;20529;-72
2022/05/05 06:31:16;;;;;;;8.70;4.60;;;10.00;99.90;;;;;;5040455;28;20541;-72
2022/05/05 06:33:43;;;;;;;8.05;4.03;;;10.20;99.90;;;;;;5041664;28;20394;-72
2022/05/05 06:36:08;;;;;;;8.45;2.85;;;10.30;99.90;;;;;;5041834;28;20018;-72
2022/05/05 06:38:34;;;;;;;8.70;3.42;;;10.50;99.90;;;;;;5041198;28;20026;-71
2022/05/05 06:41:00;;;;;;;8.27;4.45;;;10.60;99.90;;;;;;5028421;28;20124;-73
2022/05/05 06:43:26;;;;;;;8.10;4.32;;;10.80;99.90;;;;;;5038322;28;20048;-72
2022/05/05 06:45:52;;;;;;;8.02;5.63;;;11.00;99.90;;;;;;5038199;28;20475;-72
2022/05/05 06:48:17;;;;;;;10.75;4.93;;;11.10;99.90;;;;;;5038537;28;20029;-72
2022/05/05 06:50:43;;;;;;;6.60;3.65;;;11.20;99.90;;;;;;5044656;28;20463;-72
2022/05/05 06:53:09;;;;;;;11.95;3.97;;;11.30;99.90;;;;;;5021530;28;20049;-72
2022/05/05 06:55:34;;;;;;;8.57;3.72;;;11.30;99.90;;;;;;5038537;28;20022;-72
2022/05/05 06:58:00;;;;;;;11.23;4.28;;;11.30;99.90;;;;;;5021533;28;20045;-72
2022/05/05 07:01:51;;;;;;;13.52;5.30;;;11.30;99.90;;;;;;5039201;28;20022;-72
2022/05/05 07:03:11;;;;;;;10.25;4.20;;;11.30;99.90;;;;;;5037771;28;20021;-72
2022/05/05 07:05:37;;;;;;;9.98;3.60;;;11.50;99.90;;;;;;5038551;28;20459;-72
2022/05/05 07:08:02;;;;;;;13.13;3.47;;;11.60;99.90;;;;;;5019841;28;20021;-72
2022/05/05 07:13:12;;;;;;;11.43;3.80;;;11.80;99.90;;;;;;5038712;28;20408;-72
2022/05/05 07:15:38;;;;;;;13.23;3.85;;;11.90;99.90;;;;;;5021535;28;20026;-72
2022/05/05 07:18:04;;;;;;;9.52;3.58;;;11.90;99.90;;;;;;5024877;28;20056;-72
2022/05/05 07:20:30;;;;;;;8.70;3.35;;;12.00;99.90;;;;;;5039953;28;20100;-72
2022/05/05 07:22:56;;;;;;;8.98;4.18;;;12.00;99.90;;;;;;5018950;28;20458;-72
2022/05/05 07:25:22;;;;;;;6.90;3.33;;;12.10;99.90;;;;;;5020153;28;20033;-72
2022/05/05 07:27:48;;;;;;;11.10;3.58;;;12.20;99.90;;;;;;5038009;28;20025;-72
2022/05/05 07:30:14;;;;;;;7.50;3.20;;;12.30;99.90;;;;;;5019068;28;20037;-72
2022/05/05 07:32:40;;;;;;;8.60;3.28;;;12.50;99.90;;;;;;5037417;28;20398;-72
2022/05/05 07:35:06;;;;;;;4.50;3.30;;;12.50;99.90;;;;;;5020343;28;20105;-73
2022/05/05 07:37:32;;;;;;;7.82;3.60;;;12.60;99.90;;;;;;5038324;28;20486;-73
2022/05/05 07:39:58;;;;;;;9.80;3.83;;;12.50;99.90;;;;;;5039038;28;20052;-72
2022/05/05 07:42:23;;;;;;;7.95;4.13;;;12.50;99.90;;;;;;5039374;28;20029;-72
2022/05/05 07:44:49;;;;;;;8.30;4.15;;;12.50;99.90;;;;;;5040028;28;20029;-72
2022/05/05 07:47:14;;;;;;;7.85;3.88;;;12.60;99.90;;;;;;5046805;28;20044;-72
2022/05/05 07:49:40;;;;;;;12.27;4.07;;;12.70;99.90;;;;;;5055277;28;20032;-71
2022/05/05 07:52:06;;;;;;;13.45;4.00;;;12.80;99.90;;;;;;5047101;28;20057;-72
2022/05/05 07:54:34;;;;;;;12.38;4.55;;;12.90;99.90;;;;;;5038046;28;20501;-72
2022/05/05 07:57:00;;;;;;;9.00;4.03;;;12.90;99.90;;;;;;5038059;28;20021;-72
2022/05/05 07:59:26;;;;;;;9.30;3.72;;;12.70;99.90;;;;;;5039041;28;20026;-72
2022/05/05 08:01:52;;;;;;;12.10;4.60;;;12.80;99.90;;;;;;5021351;28;20083;-72
2022/05/05 08:04:17;;;;;;;7.90;3.85;;;12.90;99.90;;;;;;5038639;28;20387;-72
2022/05/05 08:06:43;;;;;;;8.63;4.47;;;12.90;99.90;;;;;;5036882;28;20040;-72
2022/05/05 08:09:09;;;;;;;6.15;3.28;;;13.00;99.90;;;;;;5036692;28;20488;-72
2022/05/05 08:11:36;;;;;;;8.02;3.40;;;13.10;99.90;;;;;;5036390;28;20075;-73
2022/05/05 08:14:02;;;;;;;10.45;3.80;;;13.10;99.90;;;;;;5036820;28;20020;-72
2022/05/05 08:16:29;;;;;;;10.00;4.60;;;13.10;99.90;;;;;;5036364;28;20021;-72
2022/05/05 08:18:55;;;;;;;13.07;4.18;;;13.10;99.90;;;;;;5036961;28;20101;-72
2022/05/05 08:21:20;;;;;;;14.25;4.53;;;13.20;99.90;;;;;;5036055;28;20509;-72
2022/05/05 08:23:46;;;;;;;12.98;4.47;;;13.40;99.90;;;;;;5036663;28;20026;-72
2022/05/05 08:28:56;;;;;;;8.23;4.30;;;13.80;99.90;;;;;;5036931;28;20067;-72
2022/05/05 08:31:22;;;;;;;6.63;4.15;;;13.80;99.90;;;;;;5038354;28;20437;-72
2022/05/05 08:33:48;;;;;;;9.48;4.45;;;14.10;99.90;;;;;;5037458;28;20383;-72
2022/05/05 08:36:13;;;;;;;13.15;5.32;;;14.10;99.90;;;;;;5018255;28;20126;-71
2022/05/05 08:38:39;;;;;;;11.18;4.60;;;14.10;99.90;;;;;;5035895;28;20517;-72
2022/05/05 08:41:10;;;;;;;12.60;4.38;;;14.10;99.90;;;;;;5037046;28;20033;-72
2022/05/05 08:43:35;;;;;;;14.73;5.30;;;14.10;99.90;;;;;;5035981;28;20104;-72
2022/05/05 08:46:03;;;;;;;12.77;5.15;;;14.10;99.90;;;;;;5035786;28;20450;-72
2022/05/05 08:48:34;;;;;;;14.50;4.78;;;14.20;99.90;;;;;;5035596;28;20033;-72
2022/05/05 08:51:00;;;;;;;10.13;4.93;;;14.30;99.90;;;;;;5029898;28;20037;-72
2022/05/05 08:53:32;;;;;;;10.77;4.78;;;14.40;99.90;;;;;;5036478;28;20079;-72
2022/05/05 08:55:58;;;;;;;10.70;5.28;;;14.40;99.90;;;;;;5035527;28;20022;-73
2022/05/05 08:58:24;;;;;;;8.20;5.18;;;14.60;99.90;;;;;;5035727;28;20387;-72
2022/05/05 09:00:53;;;;;;;10.98;5.15;;;14.60;99.90;;;;;;5035869;28;20029;-72
2022/05/05 09:03:19;;;;;;;17.30;4.80;;;14.60;99.90;;;;;;5036358;28;20022;-72
2022/05/05 09:05:46;;;;;;;12.63;6.47;;;14.70;99.90;;;;;;5035361;28;20116;-72
2022/05/05 09:08:31;;;;;;;8.43;5.03;;;14.70;99.90;;;;;;5036555;28;20036;-72
2022/05/05 09:11:03;;;;;;;13.48;5.13;;;14.70;99.90;;;;;;5005223;28;20033;-72
2022/05/05 09:13:34;;;;;;;11.52;5.75;;;14.90;99.90;;;;;;5008560;28;20112;-72
2022/05/05 09:16:00;;;;;;;9.35;5.35;;;15.10;99.90;;;;;;5038488;28;20045;-72
2022/05/05 09:18:30;;;;;;;8.75;4.80;;;15.20;99.90;;;;;;5039153;28;20036;-73
2022/05/05 09:20:58;;;;;;;19.42;6.13;;;15.20;99.90;;;;;;5031926;28;20052;-72
2022/05/05 09:23:34;;;;;;;11.93;4.82;;;15.20;99.90;;;;;;5031073;28;20388;-72
2022/05/05 09:26:01;;;;;;;10.23;4.78;;;15.10;99.90;;;;;;5025917;28;20024;-72
2022/05/05 09:28:32;;;;;;;13.05;4.70;;;15.00;99.90;;;;;;5024391;28;20101;-72
2022/05/05 09:31:09;;;;;;;12.07;4.97;;;15.00;99.90;;;;;;5024869;28;20009;-72
2022/05/05 09:33:34;;;;;;;8.32;4.40;;;15.20;99.90;;;;;;5005306;28;20108;-73
2022/05/05 09:36:10;;;;;;;15.40;5.60;;;15.30;99.90;;;;;;5027061;28;20532;-72
2022/05/05 09:39:03;;;;;;;13.25;6.30;;;15.50;99.90;;;;;;5029713;28;20044;-72
2022/05/05 09:41:32;;;;;;;10.90;5.65;;;15.60;99.90;;;;;;5022712;28;20044;-73
2022/05/05 09:44:03;;;;;;;12.63;5.13;;;15.70;99.90;;;;;;5027608;28;20093;-72
2022/05/05 09:46:30;;;;;;;13.10;5.05;;;15.70;99.90;;;;;;5026945;28;20032;-72
2022/05/05 09:49:13;;;;;;;12.38;5.20;;;15.60;99.90;;;;;;5027056;28;20080;-72
2022/05/05 09:57:42;;;;;;;11.13;4.95;;;15.70;99.90;;;;;;5023152;28;20125;-72
2022/05/05 10:05:51;;;;;;;13.48;4.47;;;15.60;99.90;;;;;;5026285;28;20067;-72
2022/05/05 10:08:21;;;;;;;8.98;4.10;;;15.70;99.90;;;;;;5026898;28;20104;-73
2022/05/05 10:10:46;;;;;;;12.02;3.90;;;15.80;99.90;;;;;;5024442;28;20018;-72
2022/05/05 10:13:13;;;;;;;11.13;3.97;;;15.90;99.90;;;;;;5025210;28;20143;-73
2022/05/05 10:15:39;;;;;;;12.48;4.10;;;15.90;99.90;;;;;;5026824;28;20109;-73
2022/05/05 10:18:06;;;;;;;11.90;3.83;;;16.00;99.90;;;;;;5004593;28;20014;-73
2022/05/05 10:20:33;;;;;;;10.13;3.20;;;16.00;99.90;;;;;;5030060;28;20022;-73
2022/05/05 10:23:20;;;;;;;11.63;3.92;;;16.10;99.90;;;;;;5049366;22;20045;-55
2022/05/05 10:25:52;;;;;;;10.00;3.67;;;16.20;99.90;;;;;;5022125;28;20018;-55
2022/05/05 10:28:39;;;;;;;9.07;4.13;;;16.20;99.90;;;;;;5004046;28;20026;-55
2022/05/05 10:31:09;;;;;;;15.23;4.38;;;16.20;98.40;;;;;;4999846;28;20124;-54
2022/05/05 10:34:01;;;;;;;13.43;4.00;;;16.10;98.10;;;;;;4994780;28;20040;-56
2022/05/05 10:36:27;;;;;;;;;;;16.10;98.90;;;;;;5015062;28;20056;-56
2022/05/05 10:38:53;;;;;;;7.00;3.28;;;16.00;98.20;;;;;;5021304;28;19910;-53
2022/05/05 10:41:35;;;;;;;12.95;3.60;;;16.10;97.50;;;;;;5004031;28;20045;-56
2022/05/05 10:44:16;;;;;;;11.38;4.20;;;16.10;97.20;;;;;;5019918;28;20026;-54
2022/05/05 10:46:57;;;;;;;7.38;3.28;;;16.20;96.90;;;;;;5022491;28;20018;-56
2022/05/05 10:49:41;;;;;;;9.57;3.05;;;16.40;96.40;;;;;;5020823;28;20057;-56
2022/05/05 10:52:09;;;;;;;11.63;3.30;;;16.50;95.40;;;;;;5020200;28;20444;-55
2022/05/05 10:54:56;;;;;;;5.97;2.90;;;16.60;95.10;;;;;;5022421;28;20355;-55
2022/05/05 10:57:29;;;;;;;12.98;3.10;;;16.70;92.70;;;;;;5022317;28;20099;-55
2022/05/05 11:00:14;;;;;;;6.25;2.88;;;16.60;92.50;;;;;;5025399;28;20112;-54
2022/05/05 11:02:58;;;;;;;8.38;2.67;;;16.70;92.40;;;;;;5025254;28;20021;-57
2022/05/05 11:05:26;;;;;;;9.63;2.85;;;16.70;92.50;;;;;;5024925;28;20025;-56
2022/05/05 11:07:51;;;;;;;11.40;3.40;;;16.80;92.70;;;;;;5024549;28;20368;-56
2022/05/05 11:11:39;;;;;;;7.28;3.13;;;16.70;93.40;;;;;;5024097;28;20075;-56
2022/05/05 11:13:45;;;;;;;6.40;2.72;;;16.70;93.20;;;;;;5024448;28;20102;-55
2022/05/05 11:22:15;;;;;;;9.40;3.15;;;16.70;90.10;;;;;;5019996;28;20040;-56
2022/05/05 11:24:46;;;;;;;13.02;3.42;;;16.70;90.00;;;;;;5020423;28;20061;-56
2022/05/05 11:27:31;;;;;;;11.60;4.13;;;16.90;90.90;;;;;;5015195;28;20303;-56
2022/05/05 11:29:58;;;;;;;12.98;4.07;;;17.00;91.80;;;;;;5022842;28;20760;-56
2022/05/05 11:32:32;;;;;;;16.60;4.75;;;17.20;92.10;;;;;;5015394;28;20114;-52
2022/05/05 11:34:59;;;;;;;12.80;3.70;;;17.10;92.40;;;;;;5020757;28;20108;-55
2022/05/05 11:37:31;;;;;;;14.55;3.90;;;17.10;92.50;;;;;;5021312;28;20497;-56
2022/05/05 11:40:00;;;;;;;14.13;3.58;;;17.20;92.00;;;;;;5023810;28;20014;-55
2022/05/05 11:42:27;;;;;;;12.10;3.65;;;16.90;94.00;;;;;;5006203;28;20052;-52
2022/05/05 11:44:53;;;;;;;19.60;4.57;;;16.80;94.70;;;;;;5023773;28;20021;-50
2022/05/05 11:47:21;;;;;;;10.95;4.45;;;17.00;95.20;;;;;;5023012;28;20104;-53
2022/05/05 11:50:06;;;;;;;14.35;4.05;;;16.90;94.80;;;;;;5020744;28;20514;-56
2022/05/05 11:52:33;;;;;;;11.18;3.30;;;16.90;93.50;;;;;;5022465;28;20042;-51
2022/05/05 11:54:59;;;;;;;9.68;3.42;;;17.00;94.00;;;;;;5023726;28;20073;-53
2022/05/05 11:57:38;;;;;;;15.40;3.60;;;17.20;93.80;;;;;;5005541;28;20162;-51
2022/05/05 12:02:50;;;;;;;7.60;2.70;;;17.40;92.90;;;;;;5017455;28;20079;-51
2022/05/05 12:05:17;;;;;;;5.07;1.65;;;17.60;91.30;;;;;;5023597;28;20021;-52
2022/05/05 12:07:46;;;;;;;5.38;2.00;;;17.50;86.40;;;;;;5023845;28;20060;-51
2022/05/05 12:10:14;;;;;;;4.25;1.00;;;17.30;85.60;;;;;;5023835;28;20061;-53
2022/05/05 12:13:01;;;;;;;5.38;1.40;;;17.30;80.50;;;;;;5023852;28;20095;-55
2022/05/05 12:15:27;;;;;;;6.07;1.67;;;17.20;79.80;;;;;;5023592;28;20021;-50
2022/05/05 12:17:57;;;;;;;9.73;2.20;;;17.20;83.20;;;;;;5023929;28;20022;-51
2022/05/05 12:20:23;;;;;;;9.32;2.20;;;17.40;84.80;;;;;;5022093;28;20449;-52
2022/05/05 12:22:59;;;;;;;8.82;2.20;;;17.50;86.70;;;;;;5005416;28;20128;-56
2022/05/05 12:25:26;;;;;;;7.30;2.88;;;17.60;88.20;;;;;;5023350;28;20022;-53
2022/05/05 12:27:58;;;;;;;12.73;2.97;;;17.60;88.50;;;;;;5022102;28;20029;-56
2022/05/05 12:30:36;;;;;;;8.45;1.98;;;17.60;89.60;;;;;;5024831;28;20068;-55
2022/05/05 12:33:03;;;;;;;8.85;1.98;;;17.80;89.60;;;;;;5022079;28;20026;-55
2022/05/05 12:35:31;;;;;;;4.85;2.50;;;18.00;88.90;;;;;;5023261;28;20387;-55
2022/05/05 12:38:00;;;;;;;5.07;2.30;;;18.30;87.90;;;;;;5024168;28;20018;-54
2022/05/05 12:40:27;;;;;;;12.85;2.72;;;18.20;87.40;;;;;;5023886;28;20072;-56
2022/05/05 12:43:01;;;;;;;4.72;1.98;;;18.30;88.50;;;;;;5022539;28;20052;-56
2022/05/05 12:45:27;;;;;;;6.82;2.35;;;18.40;88.60;;;;;;5023288;28;20032;-56
2022/05/05 12:47:54;;;;;;;8.85;2.65;;;18.40;87.70;;;;;;5023287;28;20096;-56
2022/05/05 12:50:36;;;;;;;4.90;2.60;;;18.40;87.30;;;;;;5005250;28;20032;-55
2022/05/05 13:01:30;;;;;;;11.18;2.75;;;18.90;86.60;;;;;;5021291;28;20088;-54
2022/05/05 13:04:03;;;;;;;7.20;2.70;;;19.00;85.90;;;;;;5022581;28;20026;-50
2022/05/05 13:06:30;;;;;;;7.55;2.38;;;19.10;85.90;;;;;;5004631;28;20022;-50
2022/05/05 13:08:55;;;;;;;8.90;2.08;;;19.20;86.30;;;;;;5021979;28;20429;-50
2022/05/05 13:11:21;;;;;;;6.60;2.78;;;19.30;86.30;;;;;;5020582;28;20030;-54
2022/05/05 13:13:48;;;;;;;9.52;2.38;;;19.30;84.80;;;;;;5022932;28;20026;-51
2022/05/05 13:16:14;;;;;;;6.38;1.83;;;19.10;83.70;;;;;;5013288;28;20021;-54
2022/05/05 13:18:40;;;;;;;11.02;2.75;;;18.90;84.70;;;;;;5013401;28;20500;-56
2022/05/05 13:21:06;;;;;;;3.75;1.83;;;18.90;85.50;;;;;;5012951;28;20049;-55
2022/05/05 13:23:32;;;;;;;7.00;2.17;;;18.90;85.10;;;;;;5013530;28;20392;-51
2022/05/05 13:25:57;;;;;;;6.65;2.63;;;18.60;84.70;;;;;;5009230;28;20081;-51
2022/05/05 13:28:23;;;;;;;4.88;1.77;;;18.60;86.40;;;;;;5002374;28;20027;-51
2022/05/05 13:30:49;;;;;;;4.20;1.50;;;18.60;86.80;;;;;;4995693;28;20069;-57
2022/05/05 13:33:14;;;;;;;7.10;1.88;;;18.70;85.30;;;;;;5002909;28;20091;-57
2022/05/05 13:35:40;;;;;;;7.00;2.60;;;18.80;84.20;;;;;;5003180;28;20128;-54
2022/05/05 13:38:06;;;;;;;3.63;2.35;;;18.80;84.30;;;;;;5003109;28;20027;-57